Etusivu
METAR-TAF:

METAR-TAF

Lentoasemat :

Brenner Field

Falls City, Nebraska, Yhdysvallat

Leveyspiiri: 40-04-44N, Pituuspiiri: 095-35-31W, korkeus merenpinnasta: 300 m

Tämänhetkinen sää

Tämä raportti tehtiin 16 minuuttia sitten, kello 16.17 UTC
Tuuli 15 kn pohjoisen/luoteesta puuskistuen 25 kn:hen
Lämpötila 27°C
Kosteus 79%
Ilmanpaine 1014 hPa
Näkyvyys: 16.1 km
Hajonneita pilviä 2400 ft:n korkeudessa
Hajonneita pilviä 11000 ft:n korkeudessa

METAR: KFNB 101617Z AUTO 34015G25KT 10SM BKN024 BKN110 27/23 A2995 RMK AO2 T02720228

Aika: 11:33 (16:33 UTC)


TAF: puuttuu

Säähavainnot ja -ennusteet yli 4000 lentoasemalta (METAR- ja TAF-raportit).

Käytössä olevat sääasemat on merkitty karttaan keltaisilla ja punaisilla pisteillä.

Aseta hiiri pisteen päälle nähdäksesi sääaseman nimen.

Klikkaa sitten nähdäksesi säähavainnot ja -ennusteet.

Kartan vaihtaminen: klikkaa mustalla rastilla varustettuja vihreitä pisteitä, niin voit zoomata sisään; viivalla varustettua vihreää pistettä, niin voit zoomata ulos tai vihreitä nuolia, niin pääset viereisille kartoille.


METAR-TAF: